BAW5 HKJK-OJAQ
Flight info
| Callsign | BAW5 |
|---|---|
| Flight time | N/A |
| Altitude | 60000 |
| Route | NV UM308 RUDOL/N0473F350 UM308 GWZ UB535 DTI DCT 1200N04330E/N0475F340 DCT PARIM DCT 16N041E DCT RASKA DCT 22N038E DCT SHM/N0475F330 DCT ULINA DCT METSA |
| Aircraft | CONC/H-SDE2E3FGHIRYW/I |
Departure
| Time | N/A |
|---|---|
| Airport | Jomo Kenyatta International Airport (HKJK) |
Arrival
| Time | 2026-04-26 14:34 |
|---|---|
| Airport | King Hussein International Airport (OJAQ) |
| Time | Latitude | Longitude | Altitude | Speed | Heading |
|---|---|---|---|---|---|
| 2026-04-26 12:46 | 10.47316 | 41.16291 | 32775 ft | 594 kts | 58° |
| 2026-04-26 12:46 | 10.51460 | 41.23551 | 32775 ft | 594 kts | 58° |
| 2026-04-26 12:47 | 10.55609 | 41.30819 | 32775 ft | 594 kts | 58° |
| 2026-04-26 12:47 | 10.59755 | 41.38086 | 32775 ft | 594 kts | 58° |
| 2026-04-26 12:48 | 10.63896 | 41.45357 | 32775 ft | 594 kts | 58° |
| 2026-04-26 12:48 | 10.68037 | 41.52630 | 32775 ft | 594 kts | 58° |
| 2026-04-26 12:49 | 10.72172 | 41.59894 | 32775 ft | 594 kts | 59° |
| 2026-04-26 12:49 | 10.76311 | 41.67171 | 32775 ft | 594 kts | 59° |
| 2026-04-26 12:50 | 10.80446 | 41.74445 | 32775 ft | 594 kts | 59° |
| 2026-04-26 12:50 | 10.84580 | 41.81728 | 32775 ft | 594 kts | 59° |
| 2026-04-26 12:51 | 10.88714 | 41.89016 | 32775 ft | 594 kts | 59° |
| 2026-04-26 12:51 | 10.92842 | 41.96297 | 32775 ft | 594 kts | 59° |
| 2026-04-26 12:52 | 10.96944 | 42.03531 | 32775 ft | 594 kts | 59° |
| 2026-04-26 12:52 | 11.01075 | 42.10818 | 32775 ft | 594 kts | 59° |
| 2026-04-26 12:53 | 11.05192 | 42.18103 | 32775 ft | 594 kts | 59° |
| 2026-04-26 12:53 | 11.09240 | 42.25447 | 32775 ft | 594 kts | 60° |
| 2026-04-26 12:54 | 11.13236 | 42.32814 | 32775 ft | 594 kts | 60° |
| 2026-04-26 12:54 | 11.17226 | 42.40192 | 32775 ft | 594 kts | 60° |
| 2026-04-26 12:55 | 11.21235 | 42.47549 | 32775 ft | 594 kts | 59° |
| 2026-04-26 12:55 | 11.25263 | 42.54903 | 32775 ft | 594 kts | 59° |
| 2026-04-26 12:56 | 11.29277 | 42.62269 | 32775 ft | 594 kts | 60° |
| 2026-04-26 12:56 | 11.33278 | 42.69635 | 32775 ft | 594 kts | 60° |
| 2026-04-26 12:57 | 11.37284 | 42.77008 | 32775 ft | 594 kts | 60° |
| 2026-04-26 12:57 | 11.41294 | 42.84380 | 32775 ft | 594 kts | 60° |
| 2026-04-26 12:58 | 11.47299 | 42.95429 | 32775 ft | 594 kts | 60° |
| 2026-04-26 12:58 | 11.51303 | 43.02808 | 32775 ft | 594 kts | 60° |
| 2026-04-26 12:59 | 11.55675 | 43.09937 | 32770 ft | 593 kts | 47° |
| 2026-04-26 12:59 | 11.61538 | 43.15805 | 32777 ft | 589 kts | 40° |
| 2026-04-26 13:00 | 11.67723 | 43.21271 | 32776 ft | 589 kts | 38° |
| 2026-04-26 13:00 | 11.73967 | 43.26676 | 32776 ft | 589 kts | 38° |
| 2026-04-26 13:01 | 11.80217 | 43.32110 | 32769 ft | 600 kts | 39° |
| 2026-04-26 13:01 | 11.83381 | 43.34913 | 32828 ft | 620 kts | 39° |
| 2026-04-26 13:01 | 11.86671 | 43.37863 | 33045 ft | 642 kts | 40° |
| 2026-04-26 13:02 | 11.90088 | 43.40947 | 33396 ft | 672 kts | 40° |
| 2026-04-26 13:02 | 11.93796 | 43.43992 | 34443 ft | 688 kts | 31° |
| 2026-04-26 13:02 | 11.97976 | 43.46497 | 35745 ft | 712 kts | 24° |
| 2026-04-26 13:02 | 12.02640 | 43.48471 | 36523 ft | 737 kts | 15° |
| 2026-04-26 13:03 | 12.07685 | 43.49782 | 37305 ft | 761 kts | 7° |
| 2026-04-26 13:03 | 12.13010 | 43.50387 | 38057 ft | 785 kts | 360° |
| 2026-04-26 13:03 | 12.18567 | 43.50302 | 38842 ft | 811 kts | 354° |
| 2026-04-26 13:03 | 12.24294 | 43.49851 | 39654 ft | 841 kts | 353° |
| 2026-04-26 13:04 | 12.30221 | 43.49236 | 40441 ft | 873 kts | 352° |
| 2026-04-26 13:04 | 12.36362 | 43.48419 | 41157 ft | 903 kts | 347° |
| 2026-04-26 13:04 | 12.42571 | 43.46921 | 41812 ft | 931 kts | 341° |
| 2026-04-26 13:04 | 12.48733 | 43.44661 | 42425 ft | 957 kts | 335° |
| 2026-04-26 13:05 | 12.54873 | 43.41732 | 43003 ft | 984 kts | 332° |
| 2026-04-26 13:05 | 12.60981 | 43.38444 | 43778 ft | 1003 kts | 330° |
| 2026-04-26 13:05 | 12.67117 | 43.34924 | 44483 ft | 1019 kts | 329° |
| 2026-04-26 13:05 | 12.73282 | 43.31232 | 45122 ft | 1034 kts | 328° |
| 2026-04-26 13:06 | 12.79482 | 43.27383 | 45695 ft | 1048 kts | 327° |
| 2026-04-26 13:06 | 12.85693 | 43.23369 | 46223 ft | 1061 kts | 326° |
| 2026-04-26 13:06 | 12.91917 | 43.19193 | 46720 ft | 1074 kts | 325° |
| 2026-04-26 13:06 | 12.98151 | 43.14904 | 47196 ft | 1085 kts | 324° |
| 2026-04-26 13:07 | 13.04406 | 43.10526 | 47655 ft | 1097 kts | 324° |
| 2026-04-26 13:07 | 13.10726 | 43.06054 | 48100 ft | 1108 kts | 324° |
| 2026-04-26 13:07 | 13.17093 | 43.01515 | 48537 ft | 1119 kts | 324° |
| 2026-04-26 13:07 | 13.23499 | 42.96926 | 48964 ft | 1129 kts | 324° |
| 2026-04-26 13:08 | 13.29963 | 42.92285 | 49150 ft | 1136 kts | 324° |
| 2026-04-26 13:08 | 13.36450 | 42.87626 | 49297 ft | 1138 kts | 324° |
| 2026-04-26 13:08 | 13.42940 | 42.82967 | 49448 ft | 1139 kts | 324° |
| 2026-04-26 13:08 | 13.49441 | 42.78316 | 49599 ft | 1139 kts | 324° |
| 2026-04-26 13:09 | 13.55964 | 42.73686 | 49750 ft | 1140 kts | 324° |
| 2026-04-26 13:09 | 13.62503 | 42.69082 | 49900 ft | 1140 kts | 324° |
| 2026-04-26 13:09 | 13.69069 | 42.64486 | 50051 ft | 1141 kts | 324° |
| 2026-04-26 13:09 | 13.75634 | 42.59908 | 50202 ft | 1141 kts | 325° |
| 2026-04-26 13:10 | 13.82222 | 42.55321 | 50353 ft | 1141 kts | 325° |
| 2026-04-26 13:10 | 13.88793 | 42.50738 | 50503 ft | 1142 kts | 324° |
| 2026-04-26 13:10 | 13.95359 | 42.46139 | 50654 ft | 1142 kts | 324° |
| 2026-04-26 13:10 | 14.01895 | 42.41542 | 50804 ft | 1142 kts | 324° |
| 2026-04-26 13:11 | 14.08463 | 42.36904 | 50955 ft | 1142 kts | 324° |
| 2026-04-26 13:11 | 14.15018 | 42.32262 | 51105 ft | 1142 kts | 324° |
| 2026-04-26 13:11 | 14.21553 | 42.27622 | 51256 ft | 1142 kts | 324° |
| 2026-04-26 13:11 | 14.28104 | 42.22963 | 51407 ft | 1142 kts | 324° |
| 2026-04-26 13:12 | 14.34632 | 42.18316 | 51557 ft | 1142 kts | 324° |
| 2026-04-26 13:12 | 14.41160 | 42.13668 | 51707 ft | 1142 kts | 324° |
| 2026-04-26 13:12 | 14.47708 | 42.09007 | 51858 ft | 1142 kts | 324° |
| 2026-04-26 13:12 | 14.54249 | 42.04361 | 52009 ft | 1142 kts | 324° |
| 2026-04-26 13:13 | 14.60816 | 41.99706 | 52160 ft | 1142 kts | 324° |
| 2026-04-26 13:13 | 14.67365 | 41.95066 | 52310 ft | 1142 kts | 324° |
| 2026-04-26 13:13 | 14.73895 | 41.90435 | 52460 ft | 1142 kts | 324° |
| 2026-04-26 13:13 | 14.80376 | 41.85831 | 52609 ft | 1142 kts | 324° |
| 2026-04-26 13:14 | 14.86920 | 41.81173 | 52760 ft | 1142 kts | 324° |
| 2026-04-26 13:14 | 14.93549 | 41.76446 | 52912 ft | 1142 kts | 324° |
| 2026-04-26 13:14 | 15.00078 | 41.71783 | 53063 ft | 1142 kts | 324° |
| 2026-04-26 13:14 | 15.04421 | 41.68678 | 53163 ft | 1142 kts | 324° |
| 2026-04-26 13:15 | 15.10948 | 41.64007 | 53313 ft | 1142 kts | 324° |
| 2026-04-26 13:15 | 15.17474 | 41.59333 | 53463 ft | 1142 kts | 324° |
| 2026-04-26 13:15 | 15.24017 | 41.54644 | 53614 ft | 1142 kts | 324° |
| 2026-04-26 13:15 | 15.30544 | 41.49964 | 53765 ft | 1142 kts | 324° |
| 2026-04-26 13:16 | 15.37075 | 41.45280 | 53915 ft | 1142 kts | 324° |
| 2026-04-26 13:16 | 15.43608 | 41.40593 | 54066 ft | 1142 kts | 324° |
| 2026-04-26 13:16 | 15.50143 | 41.35908 | 54216 ft | 1142 kts | 324° |
| 2026-04-26 13:16 | 15.56676 | 41.31235 | 54367 ft | 1142 kts | 324° |
| 2026-04-26 13:17 | 15.69802 | 41.21915 | 54668 ft | 1142 kts | 324° |
| 2026-04-26 13:17 | 15.76386 | 41.17285 | 54811 ft | 1142 kts | 325° |
| 2026-04-26 13:18 | 15.89578 | 41.08123 | 55076 ft | 1141 kts | 325° |
| 2026-04-26 13:18 | 15.96212 | 41.03581 | 55198 ft | 1140 kts | 326° |
| 2026-04-26 13:18 | 16.09519 | 40.94622 | 55416 ft | 1139 kts | 326° |
| 2026-04-26 13:19 | 16.16212 | 40.90200 | 55512 ft | 1139 kts | 327° |
| 2026-04-26 13:19 | 16.29702 | 40.81548 | 55675 ft | 1138 kts | 328° |
| 2026-04-26 13:20 | 16.43314 | 40.73168 | 55794 ft | 1137 kts | 329° |
| 2026-04-26 13:20 | 16.56987 | 40.64927 | 55873 ft | 1135 kts | 329° |
| 2026-04-26 13:21 | 16.70681 | 40.56732 | 55923 ft | 1134 kts | 329° |
| 2026-04-26 13:21 | 16.84342 | 40.48498 | 55958 ft | 1133 kts | 328° |
| 2026-04-26 13:22 | 16.97927 | 40.40177 | 55978 ft | 1132 kts | 328° |
| 2026-04-26 13:22 | 17.11480 | 40.31775 | 55990 ft | 1132 kts | 328° |
| 2026-04-26 13:23 | 17.25000 | 40.23341 | 55997 ft | 1131 kts | 328° |
| 2026-04-26 13:23 | 17.38429 | 40.14948 | 56002 ft | 1131 kts | 328° |
| 2026-04-26 13:24 | 17.51956 | 40.06533 | 56008 ft | 1131 kts | 328° |
| 2026-04-26 13:24 | 17.65514 | 39.98148 | 56014 ft | 1131 kts | 328° |
| 2026-04-26 13:25 | 17.79073 | 39.89750 | 56021 ft | 1131 kts | 328° |
| 2026-04-26 13:25 | 17.92613 | 39.81318 | 56028 ft | 1131 kts | 328° |
| 2026-04-26 13:26 | 18.06143 | 39.72853 | 56039 ft | 1131 kts | 328° |
| 2026-04-26 13:26 | 18.19661 | 39.64371 | 56055 ft | 1132 kts | 328° |
| 2026-04-26 13:27 | 18.33185 | 39.55875 | 56076 ft | 1132 kts | 328° |
| 2026-04-26 13:27 | 18.46710 | 39.47381 | 56100 ft | 1132 kts | 328° |
| 2026-04-26 13:28 | 18.60271 | 39.38912 | 56125 ft | 1132 kts | 329° |
| 2026-04-26 13:28 | 18.74024 | 39.30815 | 56145 ft | 1133 kts | 331° |
| 2026-04-26 13:29 | 18.88017 | 39.23168 | 56165 ft | 1133 kts | 333° |
| 2026-04-26 13:29 | 19.02248 | 39.15936 | 56186 ft | 1134 kts | 334° |
| 2026-04-26 13:30 | 19.16599 | 39.09023 | 56211 ft | 1135 kts | 335° |
| 2026-04-26 13:30 | 19.31073 | 39.02331 | 56240 ft | 1135 kts | 335° |
| 2026-04-26 13:31 | 19.45627 | 38.95837 | 56272 ft | 1135 kts | 336° |
| 2026-04-26 13:31 | 19.60269 | 38.89522 | 56307 ft | 1136 kts | 337° |
| 2026-04-26 13:32 | 19.74980 | 38.83397 | 56340 ft | 1136 kts | 338° |
| 2026-04-26 13:32 | 19.89775 | 38.77524 | 56374 ft | 1137 kts | 339° |
| 2026-04-26 13:33 | 20.04618 | 38.71994 | 56409 ft | 1137 kts | 340° |
| 2026-04-26 13:33 | 20.19607 | 38.66612 | 56446 ft | 1137 kts | 340° |
| 2026-04-26 13:34 | 20.34626 | 38.61299 | 56480 ft | 1137 kts | 340° |
| 2026-04-26 13:34 | 20.49654 | 38.55966 | 56512 ft | 1137 kts | 340° |
| 2026-04-26 13:35 | 20.64620 | 38.50533 | 56542 ft | 1137 kts | 340° |
| 2026-04-26 13:35 | 20.79548 | 38.45008 | 56572 ft | 1137 kts | 339° |
| 2026-04-26 13:36 | 20.94506 | 38.39409 | 56603 ft | 1137 kts | 339° |
| 2026-04-26 13:36 | 21.09433 | 38.33800 | 56636 ft | 1137 kts | 339° |
| 2026-04-26 13:37 | 21.24368 | 38.28216 | 56666 ft | 1137 kts | 340° |
| 2026-04-26 13:37 | 21.39322 | 38.22665 | 56696 ft | 1137 kts | 339° |
| 2026-04-26 13:38 | 21.54156 | 38.16826 | 56725 ft | 1136 kts | 338° |
| 2026-04-26 13:38 | 21.68885 | 38.10669 | 56753 ft | 1136 kts | 337° |
| 2026-04-26 13:39 | 21.83535 | 38.04267 | 56781 ft | 1135 kts | 336° |
| 2026-04-26 13:39 | 21.98091 | 37.97658 | 56811 ft | 1135 kts | 335° |
| 2026-04-26 13:40 | 22.12566 | 37.90851 | 56842 ft | 1135 kts | 335° |
| 2026-04-26 13:40 | 22.26945 | 37.83845 | 56875 ft | 1135 kts | 334° |
| 2026-04-26 13:41 | 22.41234 | 37.76608 | 56905 ft | 1134 kts | 333° |
| 2026-04-26 13:41 | 22.55373 | 37.69008 | 56935 ft | 1134 kts | 332° |
| 2026-04-26 13:42 | 22.69345 | 37.61101 | 56966 ft | 1133 kts | 331° |
| 2026-04-26 13:42 | 22.83233 | 37.53025 | 56996 ft | 1133 kts | 330° |
| 2026-04-26 13:43 | 22.97082 | 37.44867 | 57027 ft | 1133 kts | 330° |
| 2026-04-26 13:43 | 23.10934 | 37.36672 | 57059 ft | 1133 kts | 330° |
| 2026-04-26 13:44 | 23.24773 | 37.28507 | 57094 ft | 1134 kts | 330° |
| 2026-04-26 13:44 | 23.38703 | 37.20406 | 57174 ft | 1135 kts | 331° |
| 2026-04-26 13:45 | 23.52599 | 37.12409 | 57323 ft | 1138 kts | 331° |
| 2026-04-26 13:45 | 23.59696 | 37.08332 | 57443 ft | 1141 kts | 331° |
| 2026-04-26 13:45 | 23.66699 | 37.04295 | 57591 ft | 1144 kts | 331° |
| 2026-04-26 13:45 | 23.73781 | 37.00190 | 57742 ft | 1149 kts | 331° |
| 2026-04-26 13:46 | 23.80824 | 36.96089 | 57892 ft | 1150 kts | 330° |
| 2026-04-26 13:46 | 23.87889 | 36.91958 | 58041 ft | 1147 kts | 330° |
| 2026-04-26 13:46 | 23.94913 | 36.87836 | 58195 ft | 1149 kts | 330° |
| 2026-04-26 13:46 | 24.01865 | 36.83745 | 58341 ft | 1151 kts | 330° |
| 2026-04-26 13:47 | 24.08998 | 36.79539 | 58493 ft | 1151 kts | 330° |
| 2026-04-26 13:47 | 24.15946 | 36.75436 | 58641 ft | 1147 kts | 330° |
| 2026-04-26 13:47 | 24.22904 | 36.71325 | 58789 ft | 1132 kts | 330° |
| 2026-04-26 13:48 | 24.36814 | 36.63127 | 58906 ft | 1136 kts | 330° |
| 2026-04-26 13:48 | 24.50819 | 36.54888 | 59031 ft | 1135 kts | 330° |
| 2026-04-26 13:49 | 24.64622 | 36.46737 | 59099 ft | 1134 kts | 330° |
| 2026-04-26 13:49 | 24.78498 | 36.38500 | 59124 ft | 1133 kts | 330° |
| 2026-04-26 13:50 | 24.92364 | 36.30234 | 59139 ft | 1133 kts | 330° |
| 2026-04-26 13:50 | 25.06219 | 36.21949 | 59150 ft | 1132 kts | 330° |
| 2026-04-26 13:51 | 25.20065 | 36.13655 | 59157 ft | 1132 kts | 330° |
| 2026-04-26 13:51 | 25.33909 | 36.05352 | 59165 ft | 1132 kts | 330° |
| 2026-04-26 13:52 | 25.47753 | 35.97034 | 59173 ft | 1132 kts | 330° |
| 2026-04-26 13:52 | 25.61594 | 35.88696 | 59184 ft | 1132 kts | 330° |
| 2026-04-26 13:53 | 25.75525 | 35.80276 | 59200 ft | 1132 kts | 330° |
| 2026-04-26 13:53 | 25.89258 | 35.71947 | 59217 ft | 1132 kts | 330° |
| 2026-04-26 13:54 | 26.03071 | 35.63546 | 59240 ft | 1130 kts | 330° |
| 2026-04-26 13:54 | 26.09880 | 35.59399 | 59219 ft | 1101 kts | 330° |
| 2026-04-26 13:54 | 26.16601 | 35.55304 | 59315 ft | 1071 kts | 330° |
| 2026-04-26 13:55 | 26.29250 | 35.47588 | 59364 ft | 1017 kts | 330° |
| 2026-04-26 13:55 | 26.33405 | 35.45049 | 59347 ft | 999 kts | 330° |
| 2026-04-26 13:55 | 26.47136 | 35.36637 | 59133 ft | 937 kts | 330° |
| 2026-04-26 13:56 | 26.52761 | 35.33180 | 58933 ft | 912 kts | 330° |
| 2026-04-26 13:56 | 26.58278 | 35.29784 | 57994 ft | 899 kts | 329° |
| 2026-04-26 13:56 | 26.63697 | 35.26442 | 56955 ft | 882 kts | 329° |
| 2026-04-26 13:56 | 26.69009 | 35.23160 | 56067 ft | 865 kts | 329° |
| 2026-04-26 13:57 | 26.74242 | 35.19924 | 55166 ft | 850 kts | 329° |
| 2026-04-26 13:57 | 26.79357 | 35.16759 | 54203 ft | 833 kts | 329° |
| 2026-04-26 13:57 | 26.84383 | 35.13647 | 53225 ft | 817 kts | 329° |
| 2026-04-26 13:57 | 26.89300 | 35.10601 | 52252 ft | 801 kts | 329° |
| 2026-04-26 13:58 | 26.94133 | 35.07606 | 51284 ft | 785 kts | 329° |
| 2026-04-26 13:58 | 26.98855 | 35.04678 | 50331 ft | 770 kts | 329° |
| 2026-04-26 13:58 | 27.02002 | 35.02726 | 49693 ft | 760 kts | 329° |
| 2026-04-26 13:58 | 27.06590 | 34.99877 | 48763 ft | 746 kts | 329° |
| 2026-04-26 13:59 | 27.11088 | 34.97081 | 47856 ft | 733 kts | 329° |
| 2026-04-26 13:59 | 27.15512 | 34.94328 | 46969 ft | 720 kts | 329° |
| 2026-04-26 13:59 | 27.19851 | 34.91624 | 46106 ft | 708 kts | 329° |
| 2026-04-26 14:00 | 27.32447 | 34.83759 | 43650 ft | 674 kts | 329° |
| 2026-04-26 14:00 | 27.36515 | 34.81215 | 42881 ft | 664 kts | 329° |
| 2026-04-26 14:00 | 27.39181 | 34.79546 | 42384 ft | 658 kts | 329° |
| 2026-04-26 14:01 | 27.44473 | 34.76232 | 41403 ft | 645 kts | 329° |
| 2026-04-26 14:01 | 27.48371 | 34.73789 | 40689 ft | 636 kts | 329° |
| 2026-04-26 14:01 | 27.52161 | 34.71411 | 39976 ft | 627 kts | 329° |
| 2026-04-26 14:01 | 27.55942 | 34.69039 | 39132 ft | 617 kts | 329° |
| 2026-04-26 14:02 | 27.59657 | 34.66706 | 38161 ft | 605 kts | 329° |
| 2026-04-26 14:02 | 27.63297 | 34.64419 | 37096 ft | 593 kts | 329° |
| 2026-04-26 14:02 | 27.66863 | 34.62176 | 36070 ft | 581 kts | 329° |
| 2026-04-26 14:02 | 27.70385 | 34.59957 | 35337 ft | 578 kts | 328° |
| 2026-04-26 14:03 | 27.73879 | 34.57753 | 35523 ft | 574 kts | 328° |
| 2026-04-26 14:03 | 27.77307 | 34.55591 | 35927 ft | 554 kts | 328° |
| 2026-04-26 14:03 | 27.80689 | 34.53454 | 35771 ft | 567 kts | 328° |
| 2026-04-26 14:03 | 27.84173 | 34.51247 | 35365 ft | 574 kts | 328° |
| 2026-04-26 14:04 | 27.87639 | 34.49053 | 34953 ft | 569 kts | 328° |
| 2026-04-26 14:04 | 27.91080 | 34.46879 | 34145 ft | 561 kts | 328° |
| 2026-04-26 14:04 | 27.94462 | 34.44780 | 32955 ft | 552 kts | 332° |
| 2026-04-26 14:04 | 27.98105 | 34.43381 | 31522 ft | 554 kts | 349° |
| 2026-04-26 14:05 | 28.01946 | 34.43310 | 30392 ft | 554 kts | 7° |
| 2026-04-26 14:05 | 28.05654 | 34.44412 | 29515 ft | 550 kts | 17° |
| 2026-04-26 14:05 | 28.09244 | 34.45804 | 28741 ft | 540 kts | 15° |
| 2026-04-26 14:05 | 28.12828 | 34.47118 | 28263 ft | 543 kts | 15° |
| 2026-04-26 14:06 | 28.16416 | 34.48400 | 27797 ft | 540 kts | 15° |
| 2026-04-26 14:06 | 28.19991 | 34.49669 | 27333 ft | 537 kts | 15° |
| 2026-04-26 14:06 | 28.23549 | 34.50932 | 26868 ft | 533 kts | 15° |
| 2026-04-26 14:06 | 28.27070 | 34.52189 | 26405 ft | 530 kts | 15° |
| 2026-04-26 14:07 | 28.30576 | 34.53453 | 25941 ft | 528 kts | 15° |
| 2026-04-26 14:07 | 28.34066 | 34.54730 | 25476 ft | 525 kts | 15° |
| 2026-04-26 14:07 | 28.37529 | 34.56025 | 25011 ft | 522 kts | 16° |
| 2026-04-26 14:07 | 28.40955 | 34.57349 | 24547 ft | 519 kts | 16° |
| 2026-04-26 14:08 | 28.44357 | 34.58693 | 24082 ft | 515 kts | 17° |
| 2026-04-26 14:08 | 28.47724 | 34.60037 | 23618 ft | 512 kts | 17° |
| 2026-04-26 14:08 | 28.51070 | 34.61376 | 23154 ft | 508 kts | 17° |
| 2026-04-26 14:08 | 28.54403 | 34.62700 | 22689 ft | 505 kts | 17° |
| 2026-04-26 14:09 | 28.57701 | 34.63996 | 22226 ft | 501 kts | 16° |
| 2026-04-26 14:09 | 28.60993 | 34.65284 | 21762 ft | 498 kts | 16° |
| 2026-04-26 14:09 | 28.64257 | 34.66558 | 21299 ft | 495 kts | 16° |
| 2026-04-26 14:09 | 28.67504 | 34.67831 | 20834 ft | 491 kts | 16° |
| 2026-04-26 14:10 | 28.70723 | 34.69103 | 20371 ft | 488 kts | 17° |
| 2026-04-26 14:10 | 28.73920 | 34.70371 | 19907 ft | 485 kts | 17° |
| 2026-04-26 14:10 | 28.77093 | 34.71628 | 19443 ft | 481 kts | 17° |
| 2026-04-26 14:10 | 28.80250 | 34.72874 | 18979 ft | 478 kts | 16° |
| 2026-04-26 14:11 | 28.86498 | 34.75340 | 18050 ft | 472 kts | 17° |
| 2026-04-26 14:11 | 28.89588 | 34.76565 | 17586 ft | 469 kts | 17° |
| 2026-04-26 14:11 | 28.92658 | 34.77784 | 17121 ft | 465 kts | 17° |
| 2026-04-26 14:12 | 28.95705 | 34.78992 | 16657 ft | 462 kts | 17° |
| 2026-04-26 14:12 | 28.98695 | 34.80178 | 16198 ft | 459 kts | 17° |
| 2026-04-26 14:12 | 29.01703 | 34.81373 | 15733 ft | 456 kts | 17° |
| 2026-04-26 14:12 | 29.04724 | 34.82576 | 15263 ft | 453 kts | 17° |
| 2026-04-26 14:13 | 29.10604 | 34.84915 | 14339 ft | 447 kts | 17° |
| 2026-04-26 14:13 | 29.13534 | 34.86079 | 13874 ft | 444 kts | 17° |
| 2026-04-26 14:13 | 29.16444 | 34.87237 | 13408 ft | 441 kts | 17° |
| 2026-04-26 14:14 | 29.19334 | 34.88389 | 12943 ft | 438 kts | 17° |
| 2026-04-26 14:14 | 29.22200 | 34.89533 | 12479 ft | 435 kts | 17° |
| 2026-04-26 14:14 | 29.25050 | 34.90670 | 12013 ft | 433 kts | 17° |
| 2026-04-26 14:14 | 29.27883 | 34.91800 | 11547 ft | 428 kts | 17° |
| 2026-04-26 14:15 | 29.30674 | 34.92914 | 11081 ft | 421 kts | 17° |
| 2026-04-26 14:15 | 29.33416 | 34.94009 | 10617 ft | 415 kts | 18° |
| 2026-04-26 14:15 | 29.36127 | 34.95123 | 10148 ft | 411 kts | 22° |
| 2026-04-26 14:15 | 29.38499 | 34.96904 | 9668 ft | 410 kts | 45° |
| 2026-04-26 14:16 | 29.40255 | 34.99421 | 9209 ft | 401 kts | 54° |
| 2026-04-26 14:16 | 29.41871 | 35.01980 | 8769 ft | 390 kts | 53° |
| 2026-04-26 14:16 | 29.43483 | 35.04351 | 8914 ft | 363 kts | 51° |
| 2026-04-26 14:16 | 29.44986 | 35.06538 | 9008 ft | 339 kts | 51° |
| 2026-04-26 14:17 | 29.46439 | 35.08653 | 9083 ft | 337 kts | 51° |
| 2026-04-26 14:17 | 29.47888 | 35.10764 | 9138 ft | 337 kts | 51° |
| 2026-04-26 14:17 | 29.49287 | 35.12799 | 8965 ft | 316 kts | 50° |
| 2026-04-26 14:17 | 29.50759 | 35.14655 | 8778 ft | 313 kts | 45° |
| 2026-04-26 14:18 | 29.52280 | 35.16418 | 8761 ft | 308 kts | 45° |
| 2026-04-26 14:18 | 29.53803 | 35.18151 | 8768 ft | 307 kts | 44° |
| 2026-04-26 14:18 | 29.55327 | 35.19872 | 8771 ft | 307 kts | 44° |
| 2026-04-26 14:18 | 29.56851 | 35.21590 | 8772 ft | 307 kts | 44° |
| 2026-04-26 14:19 | 29.58377 | 35.23307 | 8772 ft | 307 kts | 44° |
| 2026-04-26 14:19 | 29.59905 | 35.25026 | 8772 ft | 307 kts | 44° |
| 2026-04-26 14:19 | 29.61432 | 35.26743 | 8772 ft | 307 kts | 44° |
| 2026-04-26 14:19 | 29.63012 | 35.28395 | 8762 ft | 307 kts | 31° |
| 2026-04-26 14:20 | 29.64836 | 35.29498 | 8774 ft | 307 kts | 25° |
| 2026-04-26 14:20 | 29.66779 | 35.30514 | 8773 ft | 307 kts | 24° |
| 2026-04-26 14:20 | 29.68736 | 35.31504 | 8773 ft | 307 kts | 23° |
| 2026-04-26 14:20 | 29.70694 | 35.32483 | 8773 ft | 307 kts | 23° |
| 2026-04-26 14:21 | 29.72654 | 35.33459 | 8773 ft | 307 kts | 23° |
| 2026-04-26 14:21 | 29.74612 | 35.34433 | 8773 ft | 307 kts | 23° |
| 2026-04-26 14:21 | 29.76575 | 35.35408 | 8773 ft | 307 kts | 23° |
| 2026-04-26 14:21 | 29.78534 | 35.36381 | 8773 ft | 307 kts | 23° |
| 2026-04-26 14:22 | 29.80499 | 35.37357 | 8773 ft | 307 kts | 23° |
| 2026-04-26 14:22 | 29.82432 | 35.38317 | 8773 ft | 307 kts | 23° |
| 2026-04-26 14:22 | 29.84418 | 35.39304 | 8733 ft | 307 kts | 23° |
| 2026-04-26 14:22 | 29.86405 | 35.40110 | 8422 ft | 307 kts | 16° |
| 2026-04-26 14:23 | 29.88451 | 35.40765 | 7865 ft | 304 kts | 15° |
| 2026-04-26 14:23 | 29.90494 | 35.41381 | 7692 ft | 304 kts | 14° |
| 2026-04-26 14:23 | 29.92534 | 35.41986 | 7406 ft | 302 kts | 14° |
| 2026-04-26 14:23 | 29.94599 | 35.42372 | 7241 ft | 301 kts | 354° |
| 2026-04-26 14:24 | 29.96525 | 35.41588 | 7180 ft | 286 kts | 321° |
| 2026-04-26 14:24 | 29.97952 | 35.40043 | 7101 ft | 284 kts | 314° |
| 2026-04-26 14:24 | 29.99322 | 35.38365 | 6819 ft | 283 kts | 313° |
| 2026-04-26 14:24 | 30.00644 | 35.36685 | 6960 ft | 283 kts | 311° |
| 2026-04-26 14:25 | 30.01926 | 35.34999 | 7157 ft | 284 kts | 310° |
| 2026-04-26 14:25 | 30.03185 | 35.33286 | 7349 ft | 275 kts | 309° |
| 2026-04-26 14:25 | 30.04407 | 35.31559 | 7551 ft | 274 kts | 308° |
| 2026-04-26 14:25 | 30.05306 | 35.29648 | 7722 ft | 275 kts | 279° |
| 2026-04-26 14:26 | 30.05219 | 35.27503 | 7608 ft | 271 kts | 247° |
| 2026-04-26 14:26 | 30.04316 | 35.25585 | 7427 ft | 269 kts | 238° |
| 2026-04-26 14:26 | 30.03306 | 35.23771 | 7220 ft | 268 kts | 237° |
| 2026-04-26 14:26 | 30.02297 | 35.22005 | 6988 ft | 267 kts | 236° |
| 2026-04-26 14:27 | 30.01275 | 35.20232 | 6753 ft | 266 kts | 236° |
| 2026-04-26 14:27 | 30.00233 | 35.18428 | 6513 ft | 265 kts | 236° |
| 2026-04-26 14:27 | 29.99212 | 35.16663 | 6278 ft | 264 kts | 236° |
| 2026-04-26 14:27 | 29.98193 | 35.14904 | 6042 ft | 263 kts | 236° |
| 2026-04-26 14:28 | 29.97129 | 35.13240 | 5787 ft | 258 kts | 220° |
| 2026-04-26 14:28 | 29.95561 | 35.12380 | 5453 ft | 248 kts | 184° |
| 2026-04-26 14:28 | 29.93902 | 35.12290 | 5468 ft | 234 kts | 182° |
| 2026-04-26 14:28 | 29.92276 | 35.12217 | 5308 ft | 234 kts | 182° |
| 2026-04-26 14:29 | 29.90640 | 35.12017 | 5099 ft | 234 kts | 193° |
| 2026-04-26 14:29 | 29.89087 | 35.11574 | 4907 ft | 233 kts | 194° |
| 2026-04-26 14:29 | 29.87530 | 35.11068 | 4763 ft | 232 kts | 197° |
| 2026-04-26 14:29 | 29.86066 | 35.10544 | 4766 ft | 212 kts | 197° |
| 2026-04-26 14:30 | 29.84668 | 35.10046 | 4636 ft | 209 kts | 197° |
| 2026-04-26 14:30 | 29.83281 | 35.09560 | 4379 ft | 208 kts | 197° |
| 2026-04-26 14:30 | 29.81899 | 35.09076 | 4110 ft | 207 kts | 197° |
| 2026-04-26 14:30 | 29.80520 | 35.08592 | 3838 ft | 207 kts | 197° |
| 2026-04-26 14:31 | 29.79143 | 35.08109 | 3564 ft | 207 kts | 197° |
| 2026-04-26 14:31 | 29.77769 | 35.07626 | 3290 ft | 206 kts | 197° |
| 2026-04-26 14:31 | 29.76401 | 35.07146 | 3016 ft | 205 kts | 197° |
| 2026-04-26 14:31 | 29.75039 | 35.06668 | 2744 ft | 204 kts | 197° |
| 2026-04-26 14:32 | 29.73679 | 35.06191 | 2473 ft | 204 kts | 197° |
| 2026-04-26 14:32 | 29.72329 | 35.05717 | 2203 ft | 203 kts | 197° |
| 2026-04-26 14:32 | 29.70981 | 35.05245 | 1934 ft | 202 kts | 197° |
| 2026-04-26 14:32 | 29.69639 | 35.04775 | 1666 ft | 201 kts | 197° |
| 2026-04-26 14:33 | 29.68303 | 35.04307 | 1399 ft | 200 kts | 197° |
| 2026-04-26 14:33 | 29.67047 | 35.03867 | 1146 ft | 177 kts | 197° |
| 2026-04-26 14:33 | 29.65885 | 35.03460 | 917 ft | 173 kts | 197° |
| 2026-04-26 14:33 | 29.64737 | 35.03055 | 688 ft | 172 kts | 198° |
| 2026-04-26 14:34 | 29.63597 | 35.02637 | 440 ft | 172 kts | 197° |
| 2026-04-26 14:34 | 29.62452 | 35.02251 | 226 ft | 171 kts | 196° |
| 2026-04-26 14:34 | 29.61393 | 35.01888 | 186 ft | 116 kts | 198° |
| 2026-04-26 14:34 | 29.60950 | 35.01735 | 186 ft | 36 kts | 197° |
| 2026-04-26 14:35 | 29.60715 | 35.01648 | 186 ft | 36 kts | 197° |
| 2026-04-26 14:35 | 29.60478 | 35.01565 | 186 ft | 36 kts | 197° |
| 2026-04-26 14:35 | 29.60242 | 35.01482 | 186 ft | 36 kts | 196° |
| 2026-04-26 14:35 | 29.60056 | 35.01446 | 186 ft | 22 kts | 168° |
| 2026-04-26 14:36 | 29.59923 | 35.01515 | 186 ft | 13 kts | 153° |
| 2026-04-26 14:36 | 29.59893 | 35.01570 | 186 ft | 7 kts | 27° |
| 2026-04-26 14:36 | 29.59950 | 35.01589 | 186 ft | 10 kts | 17° |
| 2026-04-26 14:36 | 29.60026 | 35.01615 | 186 ft | 13 kts | 16° |
| 2026-04-26 14:37 | 29.60118 | 35.01645 | 186 ft | 15 kts | 16° |
| 2026-04-26 14:37 | 29.60223 | 35.01680 | 186 ft | 17 kts | 16° |
| 2026-04-26 14:37 | 29.60339 | 35.01720 | 186 ft | 18 kts | 17° |
| 2026-04-26 14:37 | 29.60464 | 35.01764 | 186 ft | 19 kts | 17° |
| 2026-04-26 14:38 | 29.60597 | 35.01809 | 186 ft | 20 kts | 16° |
| 2026-04-26 14:38 | 29.60735 | 35.01855 | 186 ft | 21 kts | 16° |
| 2026-04-26 14:38 | 29.60879 | 35.01903 | 186 ft | 22 kts | 16° |
| 2026-04-26 14:38 | 29.60976 | 35.01936 | 186 ft | 22 kts | 17° |
| 2026-04-26 14:39 | 29.61177 | 35.02007 | 186 ft | 23 kts | 18° |
| 2026-04-26 14:39 | 29.61330 | 35.02063 | 186 ft | 23 kts | 16° |
| 2026-04-26 14:39 | 29.61486 | 35.02112 | 186 ft | 24 kts | 16° |
| 2026-04-26 14:39 | 29.61644 | 35.02166 | 186 ft | 24 kts | 17° |
| 2026-04-26 14:40 | 29.61753 | 35.02235 | 186 ft | 14 kts | 86° |
| 2026-04-26 14:40 | 29.61734 | 35.02339 | 186 ft | 0 kts | 89° |
| 2026-04-26 14:43 | 45.51341 | 12.35903 | 59 ft | 0 kts | 222° |